ENSA weather

Svea Airport
Svea, Svalbard, Norway

Public forecast

Using degrees Celsius for public forecast. Weather courtesy of forecast.io.

METAR (pilot weather report)

Closest report is Svalbard Airport, Longyear, 26.1 nm (48.4 km) NW. Retrieved 2019/04/20 14:50 UTC (1 hour ago):

ENSB 201450Z VRB02KT 9999 -SN SCT010 BKN015 00/M03 Q1005 RMK WIND 1400FT 10005KT

TAF (pilot weather forecast)

Closest forecast is Svalbard Airport, Longyear, 26.1 nm (48.4 km) NW. Retrieved 2019/04/20 12:00 UTC (4 hours ago):

TAF ENSB 201100Z 2012/2112 01008KT 9999 FEW008 BKN025 PROB30 TEMPO 2012/2017 BKN012 BECMG 2016/2018 12015KT TEMPO 2016/2108 2000 SN VV008 TEMPO 2018/2106 12025KT